sensor_id;sensor_type;location;lat;lon;timestamp;P1;durP1;ratioP1;P2;durP2;ratioP2
12654;SDS011;6392;44.644;11.448;2023-11-21T00:00:01;39.87;;;27.07;;
12654;SDS011;6392;44.644;11.448;2023-11-21T00:02:35;37.70;;;26.37;;
12654;SDS011;6392;44.644;11.448;2023-11-21T00:05:03;39.40;;;26.83;;
12654;SDS011;6392;44.644;11.448;2023-11-21T00:07:32;36.27;;;25.47;;
12654;SDS011;6392;44.644;11.448;2023-11-21T00:10:01;40.70;;;27.53;;
12654;SDS011;6392;44.644;11.448;2023-11-21T00:12:30;39.03;;;26.53;;
12654;SDS011;6392;44.644;11.448;2023-11-21T00:14:58;40.50;;;27.17;;
12654;SDS011;6392;44.644;11.448;2023-11-21T00:17:26;39.83;;;26.03;;
12654;SDS011;6392;44.644;11.448;2023-11-21T00:19:53;45.07;;;28.33;;
12654;SDS011;6392;44.644;11.448;2023-11-21T00:22:20;56.60;;;31.10;;
12654;SDS011;6392;44.644;11.448;2023-11-21T00:24:47;46.30;;;29.80;;
12654;SDS011;6392;44.644;11.448;2023-11-21T00:27:16;42.77;;;28.13;;
12654;SDS011;6392;44.644;11.448;2023-11-21T00:29:43;41.67;;;27.67;;
12654;SDS011;6392;44.644;11.448;2023-11-21T00:32:10;42.13;;;27.27;;
12654;SDS011;6392;44.644;11.448;2023-11-21T00:34:37;36.70;;;25.80;;
12654;SDS011;6392;44.644;11.448;2023-11-21T00:37:05;40.83;;;28.17;;
12654;SDS011;6392;44.644;11.448;2023-11-21T00:39:32;35.50;;;25.40;;
12654;SDS011;6392;44.644;11.448;2023-11-21T00:42:00;38.03;;;26.50;;
12654;SDS011;6392;44.644;11.448;2023-11-21T00:44:28;42.70;;;26.47;;
12654;SDS011;6392;44.644;11.448;2023-11-21T00:46:55;36.07;;;26.63;;
12654;SDS011;6392;44.644;11.448;2023-11-21T00:49:22;39.27;;;27.63;;
12654;SDS011;6392;44.644;11.448;2023-11-21T00:51:49;39.83;;;26.73;;
12654;SDS011;6392;44.644;11.448;2023-11-21T00:54:16;38.50;;;25.83;;
12654;SDS011;6392;44.644;11.448;2023-11-21T00:56:43;37.13;;;25.80;;
12654;SDS011;6392;44.644;11.448;2023-11-21T00:59:12;41.60;;;26.67;;
12654;SDS011;6392;44.644;11.448;2023-11-21T01:01:41;37.23;;;25.87;;
12654;SDS011;6392;44.644;11.448;2023-11-21T01:04:08;38.37;;;26.87;;
12654;SDS011;6392;44.644;11.448;2023-11-21T01:06:35;40.03;;;27.47;;
12654;SDS011;6392;44.644;11.448;2023-11-21T01:09:02;41.63;;;27.70;;
12654;SDS011;6392;44.644;11.448;2023-11-21T01:11:33;41.17;;;28.43;;
12654;SDS011;6392;44.644;11.448;2023-11-21T01:14:02;39.23;;;26.67;;
12654;SDS011;6392;44.644;11.448;2023-11-21T01:16:29;38.73;;;26.27;;
12654;SDS011;6392;44.644;11.448;2023-11-21T01:18:59;43.70;;;28.03;;
12654;SDS011;6392;44.644;11.448;2023-11-21T01:21:26;43.37;;;28.27;;
12654;SDS011;6392;44.644;11.448;2023-11-21T01:23:54;44.47;;;28.60;;
12654;SDS011;6392;44.644;11.448;2023-11-21T01:26:21;45.53;;;28.50;;
12654;SDS011;6392;44.644;11.448;2023-11-21T01:28:48;39.40;;;26.97;;
12654;SDS011;6392;44.644;11.448;2023-11-21T01:31:16;39.53;;;26.57;;
12654;SDS011;6392;44.644;11.448;2023-11-21T01:33:43;39.30;;;27.70;;
12654;SDS011;6392;44.644;11.448;2023-11-21T01:36:11;40.07;;;26.43;;
12654;SDS011;6392;44.644;11.448;2023-11-21T01:38:38;38.57;;;26.27;;
12654;SDS011;6392;44.644;11.448;2023-11-21T01:41:05;41.77;;;26.90;;
12654;SDS011;6392;44.644;11.448;2023-11-21T01:43:32;38.17;;;26.27;;
12654;SDS011;6392;44.644;11.448;2023-11-21T01:45:59;37.80;;;26.87;;
12654;SDS011;6392;44.644;11.448;2023-11-21T01:48:27;37.50;;;26.33;;
12654;SDS011;6392;44.644;11.448;2023-11-21T01:50:54;38.23;;;26.17;;
12654;SDS011;6392;44.644;11.448;2023-11-21T01:53:23;42.57;;;26.57;;
12654;SDS011;6392;44.644;11.448;2023-11-21T01:55:51;41.57;;;26.30;;
12654;SDS011;6392;44.644;11.448;2023-11-21T01:58:19;36.20;;;25.07;;
12654;SDS011;6392;44.644;11.448;2023-11-21T02:00:46;39.00;;;26.13;;
12654;SDS011;6392;44.644;11.448;2023-11-21T02:03:17;43.37;;;27.33;;
12654;SDS011;6392;44.644;11.448;2023-11-21T02:05:44;44.50;;;27.63;;
12654;SDS011;6392;44.644;11.448;2023-11-21T02:08:11;42.33;;;28.23;;
12654;SDS011;6392;44.644;11.448;2023-11-21T02:10:39;38.73;;;25.83;;
12654;SDS011;6392;44.644;11.448;2023-11-21T02:13:06;37.07;;;25.57;;
12654;SDS011;6392;44.644;11.448;2023-11-21T02:15:33;38.47;;;26.03;;
12654;SDS011;6392;44.644;11.448;2023-11-21T02:18:00;37.33;;;26.70;;
12654;SDS011;6392;44.644;11.448;2023-11-21T02:20:28;40.73;;;27.73;;
12654;SDS011;6392;44.644;11.448;2023-11-21T02:22:57;41.10;;;27.07;;
12654;SDS011;6392;44.644;11.448;2023-11-21T02:25:24;40.93;;;27.70;;
12654;SDS011;6392;44.644;11.448;2023-11-21T02:27:52;39.70;;;27.47;;
12654;SDS011;6392;44.644;11.448;2023-11-21T02:30:20;45.20;;;29.40;;
12654;SDS011;6392;44.644;11.448;2023-11-21T02:32:47;45.03;;;29.27;;
12654;SDS011;6392;44.644;11.448;2023-11-21T02:35:14;39.60;;;26.87;;
12654;SDS011;6392;44.644;11.448;2023-11-21T02:37:42;44.90;;;28.63;;
12654;SDS011;6392;44.644;11.448;2023-11-21T02:40:10;44.93;;;29.53;;
12654;SDS011;6392;44.644;11.448;2023-11-21T02:42:38;46.97;;;29.00;;
12654;SDS011;6392;44.644;11.448;2023-11-21T02:45:06;45.23;;;29.30;;
12654;SDS011;6392;44.644;11.448;2023-11-21T02:47:34;41.43;;;28.63;;
12654;SDS011;6392;44.644;11.448;2023-11-21T02:50:01;43.13;;;27.97;;
12654;SDS011;6392;44.644;11.448;2023-11-21T02:52:28;46.93;;;29.57;;
12654;SDS011;6392;44.644;11.448;2023-11-21T02:54:58;54.07;;;31.30;;
12654;SDS011;6392;44.644;11.448;2023-11-21T02:57:26;48.83;;;29.27;;
12654;SDS011;6392;44.644;11.448;2023-11-21T02:59:53;41.20;;;27.97;;
12654;SDS011;6392;44.644;11.448;2023-11-21T03:02:21;48.93;;;29.43;;
12654;SDS011;6392;44.644;11.448;2023-11-21T03:04:48;41.97;;;27.73;;
12654;SDS011;6392;44.644;11.448;2023-11-21T03:07:15;40.30;;;26.53;;
12654;SDS011;6392;44.644;11.448;2023-11-21T03:09:44;40.10;;;26.70;;
12654;SDS011;6392;44.644;11.448;2023-11-21T03:12:11;37.83;;;26.17;;
12654;SDS011;6392;44.644;11.448;2023-11-21T03:14:40;35.73;;;25.47;;
12654;SDS011;6392;44.644;11.448;2023-11-21T03:17:07;38.40;;;25.93;;
12654;SDS011;6392;44.644;11.448;2023-11-21T03:19:34;40.53;;;26.83;;
12654;SDS011;6392;44.644;11.448;2023-11-21T03:22:01;41.77;;;28.20;;
12654;SDS011;6392;44.644;11.448;2023-11-21T03:24:29;37.93;;;26.30;;
12654;SDS011;6392;44.644;11.448;2023-11-21T03:26:56;39.13;;;27.03;;
12654;SDS011;6392;44.644;11.448;2023-11-21T03:29:23;40.93;;;26.70;;
12654;SDS011;6392;44.644;11.448;2023-11-21T03:31:51;40.80;;;26.93;;
12654;SDS011;6392;44.644;11.448;2023-11-21T03:34:22;35.20;;;25.90;;
12654;SDS011;6392;44.644;11.448;2023-11-21T03:36:51;37.50;;;26.77;;
12654;SDS011;6392;44.644;11.448;2023-11-21T03:39:19;38.03;;;26.57;;
12654;SDS011;6392;44.644;11.448;2023-11-21T03:41:47;39.77;;;27.20;;
12654;SDS011;6392;44.644;11.448;2023-11-21T03:44:14;41.70;;;27.57;;
12654;SDS011;6392;44.644;11.448;2023-11-21T03:46:42;42.17;;;28.70;;
12654;SDS011;6392;44.644;11.448;2023-11-21T03:49:11;45.33;;;28.43;;
12654;SDS011;6392;44.644;11.448;2023-11-21T03:51:38;42.43;;;27.30;;
12654;SDS011;6392;44.644;11.448;2023-11-21T03:54:05;41.63;;;27.13;;
12654;SDS011;6392;44.644;11.448;2023-11-21T03:56:32;42.20;;;27.80;;
12654;SDS011;6392;44.644;11.448;2023-11-21T03:58:59;40.83;;;27.10;;
12654;SDS011;6392;44.644;11.448;2023-11-21T04:01:26;39.00;;;26.73;;
12654;SDS011;6392;44.644;11.448;2023-11-21T04:03:53;39.30;;;27.20;;
12654;SDS011;6392;44.644;11.448;2023-11-21T04:06:22;37.30;;;27.23;;
12654;SDS011;6392;44.644;11.448;2023-11-21T04:08:49;40.07;;;27.17;;
12654;SDS011;6392;44.644;11.448;2023-11-21T04:11:15;40.60;;;26.97;;
12654;SDS011;6392;44.644;11.448;2023-11-21T04:13:43;38.43;;;27.30;;
12654;SDS011;6392;44.644;11.448;2023-11-21T04:16:12;38.43;;;27.30;;
12654;SDS011;6392;44.644;11.448;2023-11-21T04:18:39;37.93;;;27.20;;
12654;SDS011;6392;44.644;11.448;2023-11-21T04:21:06;39.93;;;26.57;;
12654;SDS011;6392;44.644;11.448;2023-11-21T04:23:35;38.23;;;26.47;;
12654;SDS011;6392;44.644;11.448;2023-11-21T04:26:02;38.83;;;26.57;;
12654;SDS011;6392;44.644;11.448;2023-11-21T04:28:28;37.73;;;26.97;;
12654;SDS011;6392;44.644;11.448;2023-11-21T04:30:55;40.03;;;25.97;;
12654;SDS011;6392;44.644;11.448;2023-11-21T04:33:22;38.63;;;27.03;;
12654;SDS011;6392;44.644;11.448;2023-11-21T04:35:50;40.50;;;26.13;;
12654;SDS011;6392;44.644;11.448;2023-11-21T04:38:17;38.87;;;26.17;;
12654;SDS011;6392;44.644;11.448;2023-11-21T04:40:46;40.27;;;26.20;;
12654;SDS011;6392;44.644;11.448;2023-11-21T04:43:13;40.17;;;26.20;;
12654;SDS011;6392;44.644;11.448;2023-11-21T04:45:40;35.97;;;27.13;;
12654;SDS011;6392;44.644;11.448;2023-11-21T04:48:07;38.47;;;26.07;;
12654;SDS011;6392;44.644;11.448;2023-11-21T04:50:35;41.63;;;28.37;;
12654;SDS011;6392;44.644;11.448;2023-11-21T04:53:02;42.83;;;27.53;;
12654;SDS011;6392;44.644;11.448;2023-11-21T04:55:30;37.60;;;25.93;;
12654;SDS011;6392;44.644;11.448;2023-11-21T04:57:58;41.07;;;26.97;;
12654;SDS011;6392;44.644;11.448;2023-11-21T05:00:25;38.60;;;28.43;;
12654;SDS011;6392;44.644;11.448;2023-11-21T05:02:52;43.20;;;28.07;;
12654;SDS011;6392;44.644;11.448;2023-11-21T05:05:19;37.63;;;26.27;;
12654;SDS011;6392;44.644;11.448;2023-11-21T05:07:47;41.63;;;26.83;;
12654;SDS011;6392;44.644;11.448;2023-11-21T05:10:15;42.50;;;27.40;;
12654;SDS011;6392;44.644;11.448;2023-11-21T05:12:42;44.03;;;28.40;;
12654;SDS011;6392;44.644;11.448;2023-11-21T05:15:12;41.57;;;26.93;;
12654;SDS011;6392;44.644;11.448;2023-11-21T05:17:41;47.20;;;28.67;;
12654;SDS011;6392;44.644;11.448;2023-11-21T05:20:09;42.53;;;28.10;;
12654;SDS011;6392;44.644;11.448;2023-11-21T05:22:38;43.97;;;27.73;;
12654;SDS011;6392;44.644;11.448;2023-11-21T05:25:05;41.53;;;29.33;;
12654;SDS011;6392;44.644;11.448;2023-11-21T05:27:33;40.67;;;26.90;;
12654;SDS011;6392;44.644;11.448;2023-11-21T05:30:01;42.13;;;27.77;;
12654;SDS011;6392;44.644;11.448;2023-11-21T05:32:31;38.70;;;27.47;;
12654;SDS011;6392;44.644;11.448;2023-11-21T05:34:59;42.33;;;29.10;;
12654;SDS011;6392;44.644;11.448;2023-11-21T05:37:26;37.73;;;27.10;;
12654;SDS011;6392;44.644;11.448;2023-11-21T05:39:53;38.77;;;27.53;;
12654;SDS011;6392;44.644;11.448;2023-11-21T05:42:21;37.97;;;26.00;;
12654;SDS011;6392;44.644;11.448;2023-11-21T05:44:48;42.07;;;28.80;;
12654;SDS011;6392;44.644;11.448;2023-11-21T05:47:15;41.23;;;27.63;;
12654;SDS011;6392;44.644;11.448;2023-11-21T05:49:44;38.93;;;27.00;;
12654;SDS011;6392;44.644;11.448;2023-11-21T05:52:15;41.43;;;27.23;;
12654;SDS011;6392;44.644;11.448;2023-11-21T05:54:42;42.73;;;28.07;;
12654;SDS011;6392;44.644;11.448;2023-11-21T05:57:09;40.60;;;26.93;;
12654;SDS011;6392;44.644;11.448;2023-11-21T05:59:36;39.77;;;27.57;;
12654;SDS011;6392;44.644;11.448;2023-11-21T06:02:03;37.10;;;27.87;;
12654;SDS011;6392;44.644;11.448;2023-11-21T06:04:31;37.00;;;27.13;;
12654;SDS011;6392;44.644;11.448;2023-11-21T06:07:00;42.80;;;29.03;;
12654;SDS011;6392;44.644;11.448;2023-11-21T06:09:27;39.70;;;27.73;;
12654;SDS011;6392;44.644;11.448;2023-11-21T06:11:54;41.13;;;27.33;;
12654;SDS011;6392;44.644;11.448;2023-11-21T06:14:21;41.60;;;26.93;;
12654;SDS011;6392;44.644;11.448;2023-11-21T06:16:47;40.60;;;27.43;;
12654;SDS011;6392;44.644;11.448;2023-11-21T06:19:16;40.17;;;28.20;;
12654;SDS011;6392;44.644;11.448;2023-11-21T06:21:45;41.63;;;29.47;;
12654;SDS011;6392;44.644;11.448;2023-11-21T06:24:13;42.00;;;29.10;;
12654;SDS011;6392;44.644;11.448;2023-11-21T06:26:41;37.30;;;26.60;;
12654;SDS011;6392;44.644;11.448;2023-11-21T06:29:09;39.93;;;28.10;;
12654;SDS011;6392;44.644;11.448;2023-11-21T06:31:36;42.90;;;29.37;;
12654;SDS011;6392;44.644;11.448;2023-11-21T06:34:03;44.37;;;30.03;;
12654;SDS011;6392;44.644;11.448;2023-11-21T06:36:30;41.50;;;29.10;;
12654;SDS011;6392;44.644;11.448;2023-11-21T06:38:57;42.77;;;29.37;;
12654;SDS011;6392;44.644;11.448;2023-11-21T06:41:25;43.17;;;30.27;;
12654;SDS011;6392;44.644;11.448;2023-11-21T06:43:52;41.50;;;29.63;;
12654;SDS011;6392;44.644;11.448;2023-11-21T06:46:19;46.80;;;30.63;;
12654;SDS011;6392;44.644;11.448;2023-11-21T06:48:46;43.27;;;30.27;;
12654;SDS011;6392;44.644;11.448;2023-11-21T06:51:14;46.50;;;30.43;;
12654;SDS011;6392;44.644;11.448;2023-11-21T06:53:41;43.80;;;30.13;;
12654;SDS011;6392;44.644;11.448;2023-11-21T06:56:15;42.43;;;28.57;;
12654;SDS011;6392;44.644;11.448;2023-11-21T06:58:43;45.23;;;28.53;;
12654;SDS011;6392;44.644;11.448;2023-11-21T07:01:11;45.87;;;30.20;;
12654;SDS011;6392;44.644;11.448;2023-11-21T07:03:40;48.40;;;30.20;;
12654;SDS011;6392;44.644;11.448;2023-11-21T07:06:07;44.23;;;30.90;;
12654;SDS011;6392;44.644;11.448;2023-11-21T07:08:35;43.87;;;29.97;;
12654;SDS011;6392;44.644;11.448;2023-11-21T07:11:02;44.70;;;29.93;;
12654;SDS011;6392;44.644;11.448;2023-11-21T07:13:29;46.47;;;29.07;;
12654;SDS011;6392;44.644;11.448;2023-11-21T07:15:57;40.10;;;29.53;;
12654;SDS011;6392;44.644;11.448;2023-11-21T07:18:25;43.27;;;30.57;;
12654;SDS011;6392;44.644;11.448;2023-11-21T07:20:52;46.50;;;30.27;;
12654;SDS011;6392;44.644;11.448;2023-11-21T07:23:19;44.67;;;31.17;;
12654;SDS011;6392;44.644;11.448;2023-11-21T07:25:47;45.57;;;30.47;;
12654;SDS011;6392;44.644;11.448;2023-11-21T07:28:14;43.13;;;30.23;;
12654;SDS011;6392;44.644;11.448;2023-11-21T07:30:41;46.10;;;32.07;;
12654;SDS011;6392;44.644;11.448;2023-11-21T07:33:10;48.40;;;32.00;;
12654;SDS011;6392;44.644;11.448;2023-11-21T07:35:37;45.43;;;32.17;;
12654;SDS011;6392;44.644;11.448;2023-11-21T07:38:04;41.63;;;29.67;;
12654;SDS011;6392;44.644;11.448;2023-11-21T07:40:31;45.13;;;30.57;;
12654;SDS011;6392;44.644;11.448;2023-11-21T07:42:58;44.80;;;31.03;;
12654;SDS011;6392;44.644;11.448;2023-11-21T07:45:25;40.60;;;30.33;;
12654;SDS011;6392;44.644;11.448;2023-11-21T07:47:53;44.70;;;32.17;;
12654;SDS011;6392;44.644;11.448;2023-11-21T07:50:22;46.63;;;31.93;;
12654;SDS011;6392;44.644;11.448;2023-11-21T07:52:49;43.47;;;29.97;;
12654;SDS011;6392;44.644;11.448;2023-11-21T07:55:16;41.40;;;29.50;;
12654;SDS011;6392;44.644;11.448;2023-11-21T07:57:43;47.70;;;32.13;;
12654;SDS011;6392;44.644;11.448;2023-11-21T08:00:11;45.70;;;32.00;;
12654;SDS011;6392;44.644;11.448;2023-11-21T08:02:40;49.60;;;31.17;;
12654;SDS011;6392;44.644;11.448;2023-11-21T08:05:11;44.37;;;31.80;;
12654;SDS011;6392;44.644;11.448;2023-11-21T08:07:39;46.87;;;31.80;;
12654;SDS011;6392;44.644;11.448;2023-11-21T08:10:07;48.13;;;32.63;;
12654;SDS011;6392;44.644;11.448;2023-11-21T08:12:36;53.20;;;33.23;;
12654;SDS011;6392;44.644;11.448;2023-11-21T08:15:04;49.77;;;32.50;;
12654;SDS011;6392;44.644;11.448;2023-11-21T08:17:32;49.63;;;32.93;;
12654;SDS011;6392;44.644;11.448;2023-11-21T08:20:00;48.27;;;32.87;;
12654;SDS011;6392;44.644;11.448;2023-11-21T08:22:28;44.73;;;30.80;;
12654;SDS011;6392;44.644;11.448;2023-11-21T08:24:57;48.10;;;32.10;;
12654;SDS011;6392;44.644;11.448;2023-11-21T08:27:24;47.80;;;32.47;;
12654;SDS011;6392;44.644;11.448;2023-11-21T08:29:51;47.37;;;32.10;;
12654;SDS011;6392;44.644;11.448;2023-11-21T08:32:18;46.80;;;30.93;;
12654;SDS011;6392;44.644;11.448;2023-11-21T08:34:45;45.50;;;31.00;;
12654;SDS011;6392;44.644;11.448;2023-11-21T08:37:16;46.30;;;32.57;;
12654;SDS011;6392;44.644;11.448;2023-11-21T08:39:43;47.40;;;31.67;;
12654;SDS011;6392;44.644;11.448;2023-11-21T08:42:11;50.77;;;31.90;;
12654;SDS011;6392;44.644;11.448;2023-11-21T08:44:38;51.63;;;32.13;;
12654;SDS011;6392;44.644;11.448;2023-11-21T08:47:06;47.07;;;32.13;;
12654;SDS011;6392;44.644;11.448;2023-11-21T08:49:33;46.63;;;32.43;;
12654;SDS011;6392;44.644;11.448;2023-11-21T08:52:00;48.50;;;31.50;;
12654;SDS011;6392;44.644;11.448;2023-11-21T08:54:27;44.17;;;31.33;;
12654;SDS011;6392;44.644;11.448;2023-11-21T08:56:54;45.23;;;31.30;;
12654;SDS011;6392;44.644;11.448;2023-11-21T08:59:24;48.00;;;33.37;;
12654;SDS011;6392;44.644;11.448;2023-11-21T09:01:51;48.60;;;31.87;;
12654;SDS011;6392;44.644;11.448;2023-11-21T09:04:18;45.97;;;32.30;;
12654;SDS011;6392;44.644;11.448;2023-11-21T09:06:45;44.77;;;32.50;;
12654;SDS011;6392;44.644;11.448;2023-11-21T09:09:14;52.27;;;32.97;;
12654;SDS011;6392;44.644;11.448;2023-11-21T09:11:41;47.27;;;32.27;;
12654;SDS011;6392;44.644;11.448;2023-11-21T09:14:09;50.27;;;31.87;;
12654;SDS011;6392;44.644;11.448;2023-11-21T09:16:39;52.67;;;33.80;;
12654;SDS011;6392;44.644;11.448;2023-11-21T09:19:06;48.43;;;30.43;;
12654;SDS011;6392;44.644;11.448;2023-11-21T09:21:33;49.20;;;32.03;;
12654;SDS011;6392;44.644;11.448;2023-11-21T09:24:01;50.10;;;32.33;;
12654;SDS011;6392;44.644;11.448;2023-11-21T09:26:28;49.83;;;33.50;;
12654;SDS011;6392;44.644;11.448;2023-11-21T09:28:55;46.67;;;32.77;;
12654;SDS011;6392;44.644;11.448;2023-11-21T09:31:22;46.73;;;32.30;;
12654;SDS011;6392;44.644;11.448;2023-11-21T09:33:50;51.80;;;34.80;;
12654;SDS011;6392;44.644;11.448;2023-11-21T09:36:18;52.47;;;33.87;;
12654;SDS011;6392;44.644;11.448;2023-11-21T09:38:47;54.30;;;34.10;;
12654;SDS011;6392;44.644;11.448;2023-11-21T09:41:16;54.33;;;35.00;;
12654;SDS011;6392;44.644;11.448;2023-11-21T09:43:49;49.00;;;34.57;;
12654;SDS011;6392;44.644;11.448;2023-11-21T09:46:24;47.43;;;32.90;;
12654;SDS011;6392;44.644;11.448;2023-11-21T09:48:56;54.63;;;35.07;;
12654;SDS011;6392;44.644;11.448;2023-11-21T09:51:30;50.57;;;34.30;;
12654;SDS011;6392;44.644;11.448;2023-11-21T09:54:01;49.83;;;35.63;;
12654;SDS011;6392;44.644;11.448;2023-11-21T09:56:34;55.10;;;36.40;;
12654;SDS011;6392;44.644;11.448;2023-11-21T09:59:01;53.90;;;35.10;;
12654;SDS011;6392;44.644;11.448;2023-11-21T10:01:32;52.37;;;35.47;;
12654;SDS011;6392;44.644;11.448;2023-11-21T10:04:02;54.43;;;35.53;;
12654;SDS011;6392;44.644;11.448;2023-11-21T10:06:30;58.00;;;36.73;;
12654;SDS011;6392;44.644;11.448;2023-11-21T10:08:59;55.07;;;35.63;;
12654;SDS011;6392;44.644;11.448;2023-11-21T10:11:26;53.97;;;35.97;;
12654;SDS011;6392;44.644;11.448;2023-11-21T10:13:56;53.13;;;34.77;;
12654;SDS011;6392;44.644;11.448;2023-11-21T10:16:26;52.53;;;36.30;;
12654;SDS011;6392;44.644;11.448;2023-11-21T10:18:54;54.40;;;36.53;;
12654;SDS011;6392;44.644;11.448;2023-11-21T10:21:24;58.20;;;37.37;;
12654;SDS011;6392;44.644;11.448;2023-11-21T10:23:51;60.53;;;37.40;;
12654;SDS011;6392;44.644;11.448;2023-11-21T10:26:19;54.33;;;35.83;;
12654;SDS011;6392;44.644;11.448;2023-11-21T10:28:55;58.70;;;37.87;;
12654;SDS011;6392;44.644;11.448;2023-11-21T10:31:23;55.00;;;36.63;;
12654;SDS011;6392;44.644;11.448;2023-11-21T10:33:50;58.83;;;38.27;;
12654;SDS011;6392;44.644;11.448;2023-11-21T10:36:28;60.70;;;38.47;;
12654;SDS011;6392;44.644;11.448;2023-11-21T10:38:55;57.13;;;36.37;;
12654;SDS011;6392;44.644;11.448;2023-11-21T10:41:23;54.90;;;37.40;;
12654;SDS011;6392;44.644;11.448;2023-11-21T10:43:52;59.20;;;38.00;;
12654;SDS011;6392;44.644;11.448;2023-11-21T10:46:20;58.07;;;36.10;;
12654;SDS011;6392;44.644;11.448;2023-11-21T10:48:52;53.90;;;36.47;;
12654;SDS011;6392;44.644;11.448;2023-11-21T10:51:21;53.63;;;36.40;;
12654;SDS011;6392;44.644;11.448;2023-11-21T10:53:50;57.63;;;38.27;;
12654;SDS011;6392;44.644;11.448;2023-11-21T10:56:18;59.03;;;37.03;;
12654;SDS011;6392;44.644;11.448;2023-11-21T10:58:47;55.00;;;36.53;;
12654;SDS011;6392;44.644;11.448;2023-11-21T11:01:16;54.73;;;35.37;;
12654;SDS011;6392;44.644;11.448;2023-11-21T11:03:46;57.67;;;35.13;;
12654;SDS011;6392;44.644;11.448;2023-11-21T11:06:13;56.60;;;37.13;;
12654;SDS011;6392;44.644;11.448;2023-11-21T11:08:41;59.13;;;37.60;;
12654;SDS011;6392;44.644;11.448;2023-11-21T11:11:10;56.43;;;35.57;;
12654;SDS011;6392;44.644;11.448;2023-11-21T11:13:37;54.73;;;34.30;;
12654;SDS011;6392;44.644;11.448;2023-11-21T11:16:05;56.57;;;35.50;;
12654;SDS011;6392;44.644;11.448;2023-11-21T11:18:35;53.97;;;33.70;;
12654;SDS011;6392;44.644;11.448;2023-11-21T11:21:07;59.07;;;35.63;;
12654;SDS011;6392;44.644;11.448;2023-11-21T11:23:49;51.40;;;33.27;;
12654;SDS011;6392;44.644;11.448;2023-11-21T11:26:36;56.43;;;35.77;;
12654;SDS011;6392;44.644;11.448;2023-11-21T11:29:14;60.33;;;36.43;;
12654;SDS011;6392;44.644;11.448;2023-11-21T11:32:03;59.70;;;35.87;;
12654;SDS011;6392;44.644;11.448;2023-11-21T11:34:41;60.03;;;36.40;;
12654;SDS011;6392;44.644;11.448;2023-11-21T11:37:12;58.27;;;35.87;;
12654;SDS011;6392;44.644;11.448;2023-11-21T11:39:40;53.90;;;34.43;;
12654;SDS011;6392;44.644;11.448;2023-11-21T11:42:11;53.50;;;34.87;;
12654;SDS011;6392;44.644;11.448;2023-11-21T11:44:46;57.70;;;36.27;;
12654;SDS011;6392;44.644;11.448;2023-11-21T11:47:21;53.80;;;35.90;;
12654;SDS011;6392;44.644;11.448;2023-11-21T11:49:57;55.33;;;33.73;;
12654;SDS011;6392;44.644;11.448;2023-11-21T11:52:32;57.50;;;34.30;;
12654;SDS011;6392;44.644;11.448;2023-11-21T11:55:03;53.03;;;34.60;;
12654;SDS011;6392;44.644;11.448;2023-11-21T11:57:34;50.93;;;34.83;;
12654;SDS011;6392;44.644;11.448;2023-11-21T12:00:10;58.13;;;35.17;;
12654;SDS011;6392;44.644;11.448;2023-11-21T12:02:44;52.23;;;35.40;;
12654;SDS011;6392;44.644;11.448;2023-11-21T12:05:13;52.30;;;34.70;;
12654;SDS011;6392;44.644;11.448;2023-11-21T12:07:44;54.83;;;34.97;;
12654;SDS011;6392;44.644;11.448;2023-11-21T12:10:13;60.60;;;36.73;;
12654;SDS011;6392;44.644;11.448;2023-11-21T12:12:45;54.40;;;34.90;;
12654;SDS011;6392;44.644;11.448;2023-11-21T12:15:13;60.87;;;35.83;;
12654;SDS011;6392;44.644;11.448;2023-11-21T12:17:41;50.97;;;35.83;;
12654;SDS011;6392;44.644;11.448;2023-11-21T12:20:10;56.00;;;35.90;;
12654;SDS011;6392;44.644;11.448;2023-11-21T12:22:43;52.33;;;34.53;;
12654;SDS011;6392;44.644;11.448;2023-11-21T12:25:12;56.17;;;36.93;;
12654;SDS011;6392;44.644;11.448;2023-11-21T12:27:42;54.27;;;35.13;;
12654;SDS011;6392;44.644;11.448;2023-11-21T12:30:11;56.60;;;36.57;;
12654;SDS011;6392;44.644;11.448;2023-11-21T12:32:40;59.37;;;36.10;;
12654;SDS011;6392;44.644;11.448;2023-11-21T12:35:08;58.13;;;36.73;;
12654;SDS011;6392;44.644;11.448;2023-11-21T12:37:36;56.97;;;35.77;;
12654;SDS011;6392;44.644;11.448;2023-11-21T12:40:05;52.93;;;36.23;;
12654;SDS011;6392;44.644;11.448;2023-11-21T12:42:33;58.87;;;37.77;;
12654;SDS011;6392;44.644;11.448;2023-11-21T12:45:18;55.87;;;34.93;;
12654;SDS011;6392;44.644;11.448;2023-11-21T12:47:47;60.97;;;38.20;;
12654;SDS011;6392;44.644;11.448;2023-11-21T12:50:15;58.50;;;37.67;;
12654;SDS011;6392;44.644;11.448;2023-11-21T12:52:47;63.30;;;39.53;;
12654;SDS011;6392;44.644;11.448;2023-11-21T12:55:15;61.00;;;39.30;;
12654;SDS011;6392;44.644;11.448;2023-11-21T12:57:43;57.80;;;38.13;;
12654;SDS011;6392;44.644;11.448;2023-11-21T13:00:13;60.17;;;40.43;;
12654;SDS011;6392;44.644;11.448;2023-11-21T13:02:52;59.43;;;39.70;;
12654;SDS011;6392;44.644;11.448;2023-11-21T13:05:28;63.47;;;37.37;;
12654;SDS011;6392;44.644;11.448;2023-11-21T13:07:56;58.43;;;37.70;;
12654;SDS011;6392;44.644;11.448;2023-11-21T13:10:25;57.20;;;37.13;;
12654;SDS011;6392;44.644;11.448;2023-11-21T13:12:56;63.13;;;38.07;;
12654;SDS011;6392;44.644;11.448;2023-11-21T13:15:26;61.13;;;37.20;;
12654;SDS011;6392;44.644;11.448;2023-11-21T13:17:56;58.73;;;36.37;;
12654;SDS011;6392;44.644;11.448;2023-11-21T13:20:23;61.20;;;36.97;;
12654;SDS011;6392;44.644;11.448;2023-11-21T13:22:51;59.93;;;36.33;;
12654;SDS011;6392;44.644;11.448;2023-11-21T13:25:21;59.93;;;36.20;;
12654;SDS011;6392;44.644;11.448;2023-11-21T13:27:48;57.77;;;36.40;;
12654;SDS011;6392;44.644;11.448;2023-11-21T13:30:16;54.77;;;33.70;;
12654;SDS011;6392;44.644;11.448;2023-11-21T13:32:45;54.80;;;33.00;;
12654;SDS011;6392;44.644;11.448;2023-11-21T13:35:14;61.70;;;36.57;;
12654;SDS011;6392;44.644;11.448;2023-11-21T13:37:47;54.50;;;35.00;;
12654;SDS011;6392;44.644;11.448;2023-11-21T13:40:17;54.73;;;33.10;;
12654;SDS011;6392;44.644;11.448;2023-11-21T13:42:48;49.97;;;32.10;;
12654;SDS011;6392;44.644;11.448;2023-11-21T13:45:19;56.20;;;34.43;;
12654;SDS011;6392;44.644;11.448;2023-11-21T13:47:49;51.03;;;33.10;;
12654;SDS011;6392;44.644;11.448;2023-11-21T13:50:22;54.00;;;33.87;;
12654;SDS011;6392;44.644;11.448;2023-11-21T13:52:54;50.00;;;32.43;;
12654;SDS011;6392;44.644;11.448;2023-11-21T13:55:21;48.57;;;31.50;;
12654;SDS011;6392;44.644;11.448;2023-11-21T13:57:50;54.33;;;32.10;;
12654;SDS011;6392;44.644;11.448;2023-11-21T14:00:18;50.87;;;30.83;;
12654;SDS011;6392;44.644;11.448;2023-11-21T14:03:10;50.70;;;31.83;;
12654;SDS011;6392;44.644;11.448;2023-11-21T14:05:46;51.13;;;31.63;;
12654;SDS011;6392;44.644;11.448;2023-11-21T14:08:16;51.10;;;31.33;;
12654;SDS011;6392;44.644;11.448;2023-11-21T14:10:45;52.07;;;31.23;;
12654;SDS011;6392;44.644;11.448;2023-11-21T14:13:18;49.03;;;31.13;;
12654;SDS011;6392;44.644;11.448;2023-11-21T14:15:48;48.67;;;32.07;;
12654;SDS011;6392;44.644;11.448;2023-11-21T14:18:20;51.13;;;31.70;;
12654;SDS011;6392;44.644;11.448;2023-11-21T14:20:55;51.83;;;32.70;;
12654;SDS011;6392;44.644;11.448;2023-11-21T14:23:22;52.93;;;33.27;;
12654;SDS011;6392;44.644;11.448;2023-11-21T14:25:49;47.23;;;30.77;;
12654;SDS011;6392;44.644;11.448;2023-11-21T14:28:17;48.80;;;32.40;;